Ryouei Maru — JL6703 — position and weather

sailwx.info

Track history (hours):
 
Tides and Currents Weather Stations Pressure Air Temp Water Temp Dewpoint Dewpoint Depression Visibility Wind Speed Wind Dir Waves Ship Positions

Ryouei Maru

Last reported at 2015-May-27 01:18 UTC. Time now 2015-May-27 18:02 UTC.
Position N 34°32' E 138°34'.

Length 95 m; draft 5 m.

Type: Cargo ship. MMSI: 431501749.

Date/timePositionNaut miles runAvg speedWind from/ knotsBaromVisibWave heightAir tempDewpointWater temp
2015-May-27 01:18N 34°32' E 138°34'2512.9
2015-May-26 23:20N 34°31' E 139°05'1512.3
2015-May-26 22:06N 34°37' E 139°22'712.5
2015-May-26 21:33N 34°38' E 139°30'1312.5
2015-May-26 20:33N 34°45' E 139°43'1312.8
2015-May-26 19:33N 34°51' E 139°57'1412.9
2015-May-26 18:28N 34°58' E 140°12'2311.4
2015-May-26 16:28N 35°13' E 140°33'1110.3
2015-May-26 15:23N 35°22' E 140°40'3611.4
2015-May-26 12:11N 35°56' E 140°59'2212.1
2015-May-26 10:23N 36°18' E 141°00'1112.1
2015-May-26 09:31N 36°28' E 141°01'1312.5
2015-May-26 08:30N 36°41' E 141°03'1212.5
2015-May-26 07:31N 36°53' E 141°05'  
2015-May-24 00:04N 36°06' E 140°60'4813.3
2015-May-23 20:28N 35°21' E 140°41'2115.0
2015-May-23 19:05N 35°05' E 140°25'813.9
2015-May-23 18:31N 35°00' E 140°17'1313.5
2015-May-23 17:32N 34°54' E 140°03'1513.3
2015-May-23 16:24N 34°46' E 139°47'24311.1
2015-May-22 18:33N 34°03' E 134°58'1312.9
2015-May-22 17:33N 34°16' E 134°58'1110.8
2015-May-22 16:32N 34°26' E 135°05'1312.9
2015-May-22 15:33N 34°34' E 135°16'8 7.7
2015-May-22 14:30N 34°37' E 135°26'0 0.0
2015-May-22 13:12N 34°37' E 135°26'0 0.0
2015-May-22 12:18N 34°37' E 135°26'0 0.0
2015-May-22 11:06N 34°37' E 135°26'0 0.0
2015-May-22 10:18N 34°37' E 135°26'0 0.1
2015-May-22 09:30N 34°37' E 135°26'0 0.0
2015-May-22 08:30N 34°37' E 135°26'0 0.0
2015-May-22 07:12N 34°37' E 135°26'0 0.0
2015-May-22 06:30N 34°37' E 135°26'0 0.0
2015-May-22 05:18N 34°37' E 135°26'0 0.0
2015-May-22 04:24N 34°37' E 135°26'0 0.0
2015-May-22 03:30N 34°37' E 135°26'0 0.0
2015-May-22 02:30N 34°37' E 135°26'4 4.1
2015-May-22 01:33N 34°36' E 135°21'1212.3
2015-May-22 00:32N 34°27' E 135°10'1312.5
2015-May-21 23:30N 34°18' E 134°59'1112.2
2015-May-21 22:33N 34°06' E 135°00'23310.1
2015-May-20 23:29N 34°43' E 139°39'1612.7
2015-May-20 22:12N 34°51' E 139°57'912.9
2015-May-20 21:31N 34°55' E 140°06'1212.4
2015-May-20 20:32N 35°02' E 140°18'1111.5
2015-May-20 19:33N 35°09' E 140°29'1610.7
2015-May-20 18:03N 35°21' E 140°42'15 9.9
2015-May-20 16:32N 35°32' E 140°54'1610.9
2015-May-20 15:07N 35°46' E 141°01'810.6
2015-May-20 14:21N 35°54' E 141°01'1210.5
2015-May-20 13:13N 36°06' E 140°60'812.2
2015-May-20 12:33N 36°14' E 141°00'1212.2
2015-May-20 11:33N 36°26' E 141°02'1212.3
2015-May-20 10:33N 36°39' E 141°03'1212.2
2015-May-20 09:33N 36°51' E 141°05'1211.8
2015-May-20 08:32N 37°03' E 141°06'  
2015-May-17 22:31N 36°28' E 141°02'1413.2
2015-May-17 21:27N 36°14' E 141°00'1213.2
2015-May-17 20:33N 36°03' E 140°58'1313.1
2015-May-17 19:33N 35°50' E 140°56'1212.0
2015-May-17 18:33N 35°38' E 140°53'1413.5
2015-May-17 17:33N 35°26' E 140°46'1514.6
2015-May-17 16:31N 35°14' E 140°34'1513.7
2015-May-17 15:26N 35°03' E 140°22'1213.4
2015-May-17 14:33N 34°57' E 140°10'1313.2
2015-May-17 13:32N 34°50' E 139°56'1212.5
2015-May-17 12:33N 34°44' E 139°43'  
Track history (hours):
 
Tides and Currents Weather Stations Pressure Air Temp Water Temp Dewpoint Dewpoint Depression Visibility Wind Speed Wind Dir Waves Ship Positions

Ryouei Maru

Last reported at 2015-May-27 01:18 UTC. Time now 2015-May-27 18:02 UTC.
Position N 34°32' E 138°34'.

Length 95 m; draft 5 m.

Type: Cargo ship. MMSI: 431501749.

Date/timePositionNaut miles runAvg speedWind from/ knotsBaromVisibWave heightAir tempDewpointWater temp
2015-May-27 01:18N 34°32' E 138°34'2512.9
2015-May-26 23:20N 34°31' E 139°05'1512.3
2015-May-26 22:06N 34°37' E 139°22'712.5
2015-May-26 21:33N 34°38' E 139°30'1312.5
2015-May-26 20:33N 34°45' E 139°43'1312.8
2015-May-26 19:33N 34°51' E 139°57'1412.9
2015-May-26 18:28N 34°58' E 140°12'2311.4
2015-May-26 16:28N 35°13' E 140°33'1110.3
2015-May-26 15:23N 35°22' E 140°40'3611.4
2015-May-26 12:11N 35°56' E 140°59'2212.1
2015-May-26 10:23N 36°18' E 141°00'1112.1
2015-May-26 09:31N 36°28' E 141°01'1312.5
2015-May-26 08:30N 36°41' E 141°03'1212.5
2015-May-26 07:31N 36°53' E 141°05'  
2015-May-24 00:04N 36°06' E 140°60'4813.3
2015-May-23 20:28N 35°21' E 140°41'2115.0
2015-May-23 19:05N 35°05' E 140°25'813.9
2015-May-23 18:31N 35°00' E 140°17'1313.5
2015-May-23 17:32N 34°54' E 140°03'1513.3
2015-May-23 16:24N 34°46' E 139°47'24311.1
2015-May-22 18:33N 34°03' E 134°58'1312.9
2015-May-22 17:33N 34°16' E 134°58'1110.8
2015-May-22 16:32N 34°26' E 135°05'1312.9
2015-May-22 15:33N 34°34' E 135°16'8 7.7
2015-May-22 14:30N 34°37' E 135°26'0 0.0
2015-May-22 13:12N 34°37' E 135°26'0 0.0
2015-May-22 12:18N 34°37' E 135°26'0 0.0
2015-May-22 11:06N 34°37' E 135°26'0 0.0
2015-May-22 10:18N 34°37' E 135°26'0 0.1
2015-May-22 09:30N 34°37' E 135°26'0 0.0
2015-May-22 08:30N 34°37' E 135°26'0 0.0
2015-May-22 07:12N 34°37' E 135°26'0 0.0
2015-May-22 06:30N 34°37' E 135°26'0 0.0
2015-May-22 05:18N 34°37' E 135°26'0 0.0
2015-May-22 04:24N 34°37' E 135°26'0 0.0
2015-May-22 03:30N 34°37' E 135°26'0 0.0
2015-May-22 02:30N 34°37' E 135°26'4 4.1
2015-May-22 01:33N 34°36' E 135°21'1212.3
2015-May-22 00:32N 34°27' E 135°10'1312.5
2015-May-21 23:30N 34°18' E 134°59'1112.2
2015-May-21 22:33N 34°06' E 135°00'23310.1
2015-May-20 23:29N 34°43' E 139°39'1612.7
2015-May-20 22:12N 34°51' E 139°57'912.9
2015-May-20 21:31N 34°55' E 140°06'1212.4
2015-May-20 20:32N 35°02' E 140°18'1111.5
2015-May-20 19:33N 35°09' E 140°29'1610.7
2015-May-20 18:03N 35°21' E 140°42'15 9.9
2015-May-20 16:32N 35°32' E 140°54'1610.9
2015-May-20 15:07N 35°46' E 141°01'810.6
2015-May-20 14:21N 35°54' E 141°01'1210.5
2015-May-20 13:13N 36°06' E 140°60'812.2
2015-May-20 12:33N 36°14' E 141°00'1212.2
2015-May-20 11:33N 36°26' E 141°02'1212.3
2015-May-20 10:33N 36°39' E 141°03'1212.2
2015-May-20 09:33N 36°51' E 141°05'1211.8
2015-May-20 08:32N 37°03' E 141°06'  
2015-May-17 22:31N 36°28' E 141°02'1413.2
2015-May-17 21:27N 36°14' E 141°00'1213.2
2015-May-17 20:33N 36°03' E 140°58'1313.1
2015-May-17 19:33N 35°50' E 140°56'1212.0
2015-May-17 18:33N 35°38' E 140°53'1413.5
2015-May-17 17:33N 35°26' E 140°46'1514.6
2015-May-17 16:31N 35°14' E 140°34'1513.7
2015-May-17 15:26N 35°03' E 140°22'1213.4
2015-May-17 14:33N 34°57' E 140°10'1313.2
2015-May-17 13:32N 34°50' E 139°56'1212.5
2015-May-17 12:33N 34°44' E 139°43'  

Dump ship's entire track history